sensor_id;sensor_type;location;lat;lon;timestamp;P1;durP1;ratioP1;P2;durP2;ratioP2
40807;SDS011;26523;52.504;13.498;2023-03-01T00:01:25;14.55;;;5.80;;
40807;SDS011;26523;52.504;13.498;2023-03-01T00:03:52;8.18;;;4.57;;
40807;SDS011;26523;52.504;13.498;2023-03-01T00:06:19;9.00;;;4.25;;
40807;SDS011;26523;52.504;13.498;2023-03-01T00:08:45;12.63;;;4.32;;
40807;SDS011;26523;52.504;13.498;2023-03-01T00:13:47;18.03;;;4.57;;
40807;SDS011;26523;52.504;13.498;2023-03-01T00:16:15;13.70;;;5.15;;
40807;SDS011;26523;52.504;13.498;2023-03-01T00:18:46;13.57;;;4.70;;
40807;SDS011;26523;52.504;13.498;2023-03-01T00:21:12;13.57;;;5.20;;
40807;SDS011;26523;52.504;13.498;2023-03-01T00:23:38;9.52;;;4.75;;
40807;SDS011;26523;52.504;13.498;2023-03-01T00:26:08;9.30;;;4.53;;
40807;SDS011;26523;52.504;13.498;2023-03-01T00:28:35;10.95;;;5.00;;
40807;SDS011;26523;52.504;13.498;2023-03-01T00:31:13;11.48;;;5.95;;
40807;SDS011;26523;52.504;13.498;2023-03-01T00:33:40;14.15;;;4.97;;
40807;SDS011;26523;52.504;13.498;2023-03-01T00:36:07;10.05;;;3.58;;
40807;SDS011;26523;52.504;13.498;2023-03-01T00:38:37;9.27;;;5.03;;
40807;SDS011;26523;52.504;13.498;2023-03-01T00:41:04;11.85;;;4.88;;
40807;SDS011;26523;52.504;13.498;2023-03-01T00:43:31;14.55;;;5.15;;
40807;SDS011;26523;52.504;13.498;2023-03-01T00:46:02;17.05;;;5.47;;
40807;SDS011;26523;52.504;13.498;2023-03-01T00:48:32;12.70;;;4.55;;
40807;SDS011;26523;52.504;13.498;2023-03-01T00:51:04;11.77;;;4.50;;
40807;SDS011;26523;52.504;13.498;2023-03-01T00:53:34;21.50;;;5.07;;
40807;SDS011;26523;52.504;13.498;2023-03-01T00:56:00;14.85;;;4.63;;
40807;SDS011;26523;52.504;13.498;2023-03-01T00:58:26;14.05;;;5.03;;
40807;SDS011;26523;52.504;13.498;2023-03-01T01:00:52;13.63;;;5.93;;
40807;SDS011;26523;52.504;13.498;2023-03-01T01:03:18;7.13;;;3.53;;
40807;SDS011;26523;52.504;13.498;2023-03-01T01:05:44;12.80;;;5.15;;
40807;SDS011;26523;52.504;13.498;2023-03-01T01:08:09;11.98;;;4.75;;
40807;SDS011;26523;52.504;13.498;2023-03-01T01:10:35;17.98;;;5.40;;
40807;SDS011;26523;52.504;13.498;2023-03-01T01:13:01;13.90;;;3.80;;
40807;SDS011;26523;52.504;13.498;2023-03-01T01:15:27;18.10;;;5.75;;
40807;SDS011;26523;52.504;13.498;2023-03-01T01:17:53;10.70;;;5.47;;
40807;SDS011;26523;52.504;13.498;2023-03-01T01:20:19;18.05;;;5.55;;
40807;SDS011;26523;52.504;13.498;2023-03-01T01:22:45;12.27;;;4.40;;
40807;SDS011;26523;52.504;13.498;2023-03-01T01:25:11;19.45;;;6.68;;
40807;SDS011;26523;52.504;13.498;2023-03-01T01:27:37;15.20;;;6.22;;
40807;SDS011;26523;52.504;13.498;2023-03-01T01:30:03;9.80;;;4.40;;
40807;SDS011;26523;52.504;13.498;2023-03-01T01:32:29;9.57;;;5.32;;
40807;SDS011;26523;52.504;13.498;2023-03-01T01:34:54;15.43;;;4.43;;
40807;SDS011;26523;52.504;13.498;2023-03-01T01:37:20;14.27;;;5.10;;
40807;SDS011;26523;52.504;13.498;2023-03-01T01:39:46;9.60;;;4.57;;
40807;SDS011;26523;52.504;13.498;2023-03-01T01:42:15;9.55;;;3.50;;
40807;SDS011;26523;52.504;13.498;2023-03-01T01:44:44;12.23;;;4.80;;
40807;SDS011;26523;52.504;13.498;2023-03-01T01:47:15;18.50;;;4.10;;
40807;SDS011;26523;52.504;13.498;2023-03-01T01:49:54;14.57;;;6.32;;
40807;SDS011;26523;52.504;13.498;2023-03-01T01:55:00;12.70;;;4.00;;
40807;SDS011;26523;52.504;13.498;2023-03-01T01:57:34;10.65;;;5.00;;
40807;SDS011;26523;52.504;13.498;2023-03-01T02:00:26;10.70;;;4.63;;
40807;SDS011;26523;52.504;13.498;2023-03-01T02:02:55;14.15;;;4.65;;
40807;SDS011;26523;52.504;13.498;2023-03-01T02:07:53;13.18;;;4.85;;
40807;SDS011;26523;52.504;13.498;2023-03-01T02:10:20;11.02;;;4.47;;
40807;SDS011;26523;52.504;13.498;2023-03-01T02:12:47;10.57;;;3.55;;
40807;SDS011;26523;52.504;13.498;2023-03-01T02:15:13;4.78;;;3.38;;
40807;SDS011;26523;52.504;13.498;2023-03-01T02:17:39;12.07;;;4.45;;
40807;SDS011;26523;52.504;13.498;2023-03-01T02:22:49;14.05;;;4.53;;
40807;SDS011;26523;52.504;13.498;2023-03-01T02:30:36;9.68;;;4.88;;
40807;SDS011;26523;52.504;13.498;2023-03-01T02:33:02;7.55;;;3.42;;
40807;SDS011;26523;52.504;13.498;2023-03-01T02:35:30;11.25;;;3.78;;
40807;SDS011;26523;52.504;13.498;2023-03-01T02:37:59;10.98;;;5.07;;
40807;SDS011;26523;52.504;13.498;2023-03-01T02:40:27;9.55;;;4.32;;
40807;SDS011;26523;52.504;13.498;2023-03-01T02:42:55;10.27;;;4.13;;
40807;SDS011;26523;52.504;13.498;2023-03-01T02:45:23;10.13;;;4.50;;
40807;SDS011;26523;52.504;13.498;2023-03-01T02:47:49;8.25;;;3.55;;
40807;SDS011;26523;52.504;13.498;2023-03-01T02:50:30;8.65;;;4.05;;
40807;SDS011;26523;52.504;13.498;2023-03-01T02:56:07;8.50;;;4.18;;
40807;SDS011;26523;52.504;13.498;2023-03-01T02:58:38;10.43;;;3.40;;
40807;SDS011;26523;52.504;13.498;2023-03-01T03:01:13;9.48;;;3.60;;
40807;SDS011;26523;52.504;13.498;2023-03-01T03:03:41;8.23;;;4.18;;
40807;SDS011;26523;52.504;13.498;2023-03-01T03:06:06;14.45;;;4.53;;
40807;SDS011;26523;52.504;13.498;2023-03-01T03:08:32;15.00;;;4.43;;
40807;SDS011;26523;52.504;13.498;2023-03-01T03:10:58;7.82;;;3.53;;
40807;SDS011;26523;52.504;13.498;2023-03-01T03:13:23;11.70;;;3.80;;
40807;SDS011;26523;52.504;13.498;2023-03-01T03:15:53;7.82;;;3.10;;
40807;SDS011;26523;52.504;13.498;2023-03-01T03:18:20;14.50;;;4.65;;
40807;SDS011;26523;52.504;13.498;2023-03-01T03:20:47;9.00;;;3.63;;
40807;SDS011;26523;52.504;13.498;2023-03-01T03:23:17;11.00;;;3.25;;
40807;SDS011;26523;52.504;13.498;2023-03-01T03:25:47;5.30;;;3.45;;
40807;SDS011;26523;52.504;13.498;2023-03-01T03:28:14;14.27;;;4.70;;
40807;SDS011;26523;52.504;13.498;2023-03-01T03:30:41;8.40;;;3.63;;
40807;SDS011;26523;52.504;13.498;2023-03-01T03:33:08;8.35;;;3.55;;
40807;SDS011;26523;52.504;13.498;2023-03-01T03:35:38;11.95;;;3.78;;
40807;SDS011;26523;52.504;13.498;2023-03-01T03:38:07;6.82;;;3.55;;
40807;SDS011;26523;52.504;13.498;2023-03-01T03:40:40;13.73;;;4.30;;
40807;SDS011;26523;52.504;13.498;2023-03-01T03:43:17;10.32;;;4.72;;
40807;SDS011;26523;52.504;13.498;2023-03-01T03:45:45;12.63;;;4.88;;
40807;SDS011;26523;52.504;13.498;2023-03-01T03:48:12;8.85;;;4.80;;
40807;SDS011;26523;52.504;13.498;2023-03-01T03:50:38;14.48;;;5.15;;
40807;SDS011;26523;52.504;13.498;2023-03-01T03:53:06;10.45;;;5.07;;
40807;SDS011;26523;52.504;13.498;2023-03-01T03:55:35;11.10;;;3.95;;
40807;SDS011;26523;52.504;13.498;2023-03-01T03:58:04;9.52;;;5.13;;
40807;SDS011;26523;52.504;13.498;2023-03-01T04:00:36;10.55;;;4.97;;
40807;SDS011;26523;52.504;13.498;2023-03-01T04:03:03;12.02;;;5.72;;
40807;SDS011;26523;52.504;13.498;2023-03-01T04:05:30;12.30;;;6.03;;
40807;SDS011;26523;52.504;13.498;2023-03-01T04:07:56;8.95;;;3.70;;
40807;SDS011;26523;52.504;13.498;2023-03-01T04:10:32;7.50;;;4.30;;
40807;SDS011;26523;52.504;13.498;2023-03-01T04:13:00;18.60;;;4.90;;
40807;SDS011;26523;52.504;13.498;2023-03-01T04:15:26;13.52;;;5.72;;
40807;SDS011;26523;52.504;13.498;2023-03-01T04:17:53;11.65;;;5.90;;
40807;SDS011;26523;52.504;13.498;2023-03-01T04:20:21;11.27;;;4.90;;
40807;SDS011;26523;52.504;13.498;2023-03-01T04:22:51;13.50;;;4.78;;
40807;SDS011;26523;52.504;13.498;2023-03-01T04:25:18;15.20;;;5.07;;
40807;SDS011;26523;52.504;13.498;2023-03-01T04:27:44;9.18;;;4.43;;
40807;SDS011;26523;52.504;13.498;2023-03-01T04:30:10;15.80;;;3.58;;
40807;SDS011;26523;52.504;13.498;2023-03-01T04:32:36;14.52;;;4.88;;
40807;SDS011;26523;52.504;13.498;2023-03-01T04:35:02;11.75;;;4.93;;
40807;SDS011;26523;52.504;13.498;2023-03-01T04:37:27;13.73;;;5.32;;
40807;SDS011;26523;52.504;13.498;2023-03-01T04:39:54;9.10;;;5.07;;
40807;SDS011;26523;52.504;13.498;2023-03-01T04:42:20;13.95;;;4.93;;
40807;SDS011;26523;52.504;13.498;2023-03-01T04:44:45;13.32;;;4.18;;
40807;SDS011;26523;52.504;13.498;2023-03-01T04:47:11;14.70;;;4.65;;
40807;SDS011;26523;52.504;13.498;2023-03-01T04:49:37;14.52;;;4.55;;
40807;SDS011;26523;52.504;13.498;2023-03-01T04:52:03;8.85;;;5.10;;
40807;SDS011;26523;52.504;13.498;2023-03-01T04:54:32;7.80;;;4.45;;
40807;SDS011;26523;52.504;13.498;2023-03-01T04:56:59;8.98;;;4.18;;
40807;SDS011;26523;52.504;13.498;2023-03-01T04:59:25;15.77;;;5.07;;
40807;SDS011;26523;52.504;13.498;2023-03-01T05:01:52;17.70;;;6.53;;
40807;SDS011;26523;52.504;13.498;2023-03-01T05:04:20;9.55;;;5.30;;
40807;SDS011;26523;52.504;13.498;2023-03-01T05:06:49;7.35;;;4.07;;
40807;SDS011;26523;52.504;13.498;2023-03-01T05:09:15;9.73;;;5.22;;
40807;SDS011;26523;52.504;13.498;2023-03-01T05:11:41;11.80;;;4.72;;
40807;SDS011;26523;52.504;13.498;2023-03-01T05:14:07;17.13;;;5.90;;
40807;SDS011;26523;52.504;13.498;2023-03-01T05:16:34;15.20;;;4.60;;
40807;SDS011;26523;52.504;13.498;2023-03-01T05:19:01;9.00;;;4.60;;
40807;SDS011;26523;52.504;13.498;2023-03-01T05:21:36;13.25;;;6.47;;
40807;SDS011;26523;52.504;13.498;2023-03-01T05:24:22;10.68;;;4.35;;
40807;SDS011;26523;52.504;13.498;2023-03-01T05:26:48;12.07;;;4.65;;
40807;SDS011;26523;52.504;13.498;2023-03-01T05:29:16;13.85;;;4.05;;
40807;SDS011;26523;52.504;13.498;2023-03-01T05:31:43;8.95;;;4.30;;
40807;SDS011;26523;52.504;13.498;2023-03-01T05:34:08;17.45;;;6.15;;
40807;SDS011;26523;52.504;13.498;2023-03-01T05:36:36;10.80;;;4.38;;
40807;SDS011;26523;52.504;13.498;2023-03-01T05:39:03;10.48;;;5.72;;
40807;SDS011;26523;52.504;13.498;2023-03-01T05:41:28;15.40;;;4.57;;
40807;SDS011;26523;52.504;13.498;2023-03-01T05:43:54;8.35;;;4.30;;
40807;SDS011;26523;52.504;13.498;2023-03-01T05:46:20;9.13;;;3.70;;
40807;SDS011;26523;52.504;13.498;2023-03-01T05:48:45;8.23;;;4.40;;
40807;SDS011;26523;52.504;13.498;2023-03-01T05:51:13;20.48;;;5.70;;
40807;SDS011;26523;52.504;13.498;2023-03-01T05:53:38;9.05;;;4.72;;
40807;SDS011;26523;52.504;13.498;2023-03-01T05:56:04;15.27;;;5.22;;
40807;SDS011;26523;52.504;13.498;2023-03-01T05:58:31;13.68;;;4.85;;
40807;SDS011;26523;52.504;13.498;2023-03-01T06:00:57;9.20;;;4.78;;
40807;SDS011;26523;52.504;13.498;2023-03-01T06:03:22;12.57;;;5.70;;
40807;SDS011;26523;52.504;13.498;2023-03-01T06:05:48;7.30;;;4.82;;
40807;SDS011;26523;52.504;13.498;2023-03-01T06:08:14;15.52;;;4.38;;
40807;SDS011;26523;52.504;13.498;2023-03-01T06:10:39;18.67;;;4.63;;
40807;SDS011;26523;52.504;13.498;2023-03-01T06:13:05;12.90;;;6.03;;
40807;SDS011;26523;52.504;13.498;2023-03-01T06:15:31;15.35;;;6.22;;
40807;SDS011;26523;52.504;13.498;2023-03-01T06:17:57;10.00;;;5.70;;
40807;SDS011;26523;52.504;13.498;2023-03-01T06:20:23;10.55;;;5.22;;
40807;SDS011;26523;52.504;13.498;2023-03-01T06:22:50;10.45;;;3.60;;
40807;SDS011;26523;52.504;13.498;2023-03-01T06:25:17;12.73;;;5.30;;
40807;SDS011;26523;52.504;13.498;2023-03-01T06:27:45;7.40;;;4.18;;
40807;SDS011;26523;52.504;13.498;2023-03-01T06:30:12;10.77;;;4.55;;
40807;SDS011;26523;52.504;13.498;2023-03-01T06:32:40;9.95;;;5.30;;
40807;SDS011;26523;52.504;13.498;2023-03-01T06:35:07;10.85;;;5.38;;
40807;SDS011;26523;52.504;13.498;2023-03-01T06:37:33;19.65;;;6.25;;
40807;SDS011;26523;52.504;13.498;2023-03-01T06:40:00;9.63;;;4.45;;
40807;SDS011;26523;52.504;13.498;2023-03-01T06:42:32;15.23;;;6.30;;
40807;SDS011;26523;52.504;13.498;2023-03-01T06:44:57;12.32;;;4.93;;
40807;SDS011;26523;52.504;13.498;2023-03-01T06:47:23;12.45;;;4.85;;
40807;SDS011;26523;52.504;13.498;2023-03-01T06:49:49;10.20;;;5.80;;
40807;SDS011;26523;52.504;13.498;2023-03-01T06:52:14;12.25;;;5.55;;
40807;SDS011;26523;52.504;13.498;2023-03-01T06:54:40;14.30;;;6.60;;
40807;SDS011;26523;52.504;13.498;2023-03-01T06:57:06;17.63;;;6.05;;
40807;SDS011;26523;52.504;13.498;2023-03-01T06:59:31;14.13;;;6.20;;
40807;SDS011;26523;52.504;13.498;2023-03-01T07:01:57;11.32;;;5.18;;
40807;SDS011;26523;52.504;13.498;2023-03-01T07:04:22;8.73;;;4.20;;
40807;SDS011;26523;52.504;13.498;2023-03-01T07:06:48;11.38;;;4.32;;
40807;SDS011;26523;52.504;13.498;2023-03-01T07:09:20;13.93;;;5.78;;
40807;SDS011;26523;52.504;13.498;2023-03-01T07:11:49;13.63;;;5.38;;
40807;SDS011;26523;52.504;13.498;2023-03-01T07:14:15;31.48;;;8.05;;
40807;SDS011;26523;52.504;13.498;2023-03-01T07:16:41;15.82;;;6.93;;
40807;SDS011;26523;52.504;13.498;2023-03-01T07:19:06;18.55;;;5.30;;
40807;SDS011;26523;52.504;13.498;2023-03-01T07:21:32;12.82;;;5.90;;
40807;SDS011;26523;52.504;13.498;2023-03-01T07:23:58;10.52;;;5.43;;
40807;SDS011;26523;52.504;13.498;2023-03-01T07:26:23;19.63;;;7.03;;
40807;SDS011;26523;52.504;13.498;2023-03-01T07:28:49;14.95;;;5.65;;
40807;SDS011;26523;52.504;13.498;2023-03-01T07:31:14;14.95;;;6.50;;
40807;SDS011;26523;52.504;13.498;2023-03-01T07:33:40;16.67;;;7.43;;
40807;SDS011;26523;52.504;13.498;2023-03-01T07:36:06;23.95;;;8.68;;
40807;SDS011;26523;52.504;13.498;2023-03-01T07:38:32;16.02;;;6.45;;
40807;SDS011;26523;52.504;13.498;2023-03-01T07:40:59;14.57;;;6.85;;
40807;SDS011;26523;52.504;13.498;2023-03-01T07:43:27;19.25;;;6.85;;
40807;SDS011;26523;52.504;13.498;2023-03-01T07:45:53;19.92;;;7.25;;
40807;SDS011;26523;52.504;13.498;2023-03-01T07:48:19;17.35;;;5.97;;
40807;SDS011;26523;52.504;13.498;2023-03-01T07:50:45;14.20;;;6.45;;
40807;SDS011;26523;52.504;13.498;2023-03-01T07:53:10;20.55;;;7.28;;
40807;SDS011;26523;52.504;13.498;2023-03-01T07:55:37;17.52;;;6.50;;
40807;SDS011;26523;52.504;13.498;2023-03-01T07:58:02;18.55;;;6.95;;
40807;SDS011;26523;52.504;13.498;2023-03-01T08:00:28;18.75;;;7.55;;
40807;SDS011;26523;52.504;13.498;2023-03-01T08:02:54;16.30;;;6.20;;
40807;SDS011;26523;52.504;13.498;2023-03-01T08:05:20;14.75;;;6.65;;
40807;SDS011;26523;52.504;13.498;2023-03-01T08:07:47;17.10;;;6.15;;
40807;SDS011;26523;52.504;13.498;2023-03-01T08:10:13;17.55;;;7.57;;
40807;SDS011;26523;52.504;13.498;2023-03-01T08:12:38;19.60;;;7.35;;
40807;SDS011;26523;52.504;13.498;2023-03-01T08:15:04;27.40;;;7.50;;
40807;SDS011;26523;52.504;13.498;2023-03-01T08:17:30;22.60;;;8.10;;
40807;SDS011;26523;52.504;13.498;2023-03-01T08:19:56;20.02;;;8.55;;
40807;SDS011;26523;52.504;13.498;2023-03-01T08:22:21;18.55;;;8.23;;
40807;SDS011;26523;52.504;13.498;2023-03-01T08:24:47;22.13;;;8.18;;
40807;SDS011;26523;52.504;13.498;2023-03-01T08:27:14;22.33;;;8.63;;
40807;SDS011;26523;52.504;13.498;2023-03-01T08:29:40;23.00;;;8.18;;
40807;SDS011;26523;52.504;13.498;2023-03-01T08:32:06;22.83;;;8.05;;
40807;SDS011;26523;52.504;13.498;2023-03-01T08:34:31;20.63;;;7.05;;
40807;SDS011;26523;52.504;13.498;2023-03-01T08:36:57;25.65;;;8.52;;
40807;SDS011;26523;52.504;13.498;2023-03-01T08:39:23;25.20;;;7.65;;
40807;SDS011;26523;52.504;13.498;2023-03-01T08:41:48;16.05;;;6.75;;
40807;SDS011;26523;52.504;13.498;2023-03-01T08:44:14;20.90;;;5.45;;
40807;SDS011;26523;52.504;13.498;2023-03-01T08:46:41;12.52;;;4.75;;
40807;SDS011;26523;52.504;13.498;2023-03-01T08:49:12;7.50;;;3.92;;
40807;SDS011;26523;52.504;13.498;2023-03-01T08:51:40;14.65;;;4.75;;
40807;SDS011;26523;52.504;13.498;2023-03-01T08:54:07;11.35;;;4.70;;
40807;SDS011;26523;52.504;13.498;2023-03-01T08:56:38;9.02;;;3.80;;
40807;SDS011;26523;52.504;13.498;2023-03-01T08:59:04;10.60;;;4.38;;
40807;SDS011;26523;52.504;13.498;2023-03-01T09:01:29;7.88;;;3.97;;
40807;SDS011;26523;52.504;13.498;2023-03-01T09:03:55;14.82;;;5.35;;
40807;SDS011;26523;52.504;13.498;2023-03-01T09:06:21;11.70;;;4.00;;
40807;SDS011;26523;52.504;13.498;2023-03-01T09:08:47;12.27;;;3.40;;
40807;SDS011;26523;52.504;13.498;2023-03-01T09:11:15;9.07;;;3.83;;
40807;SDS011;26523;52.504;13.498;2023-03-01T09:13:45;8.60;;;3.20;;
40807;SDS011;26523;52.504;13.498;2023-03-01T09:16:12;7.63;;;3.35;;
40807;SDS011;26523;52.504;13.498;2023-03-01T09:18:39;9.68;;;3.45;;
40807;SDS011;26523;52.504;13.498;2023-03-01T09:21:06;13.73;;;3.55;;
40807;SDS011;26523;52.504;13.498;2023-03-01T09:23:38;6.55;;;3.20;;
40807;SDS011;26523;52.504;13.498;2023-03-01T09:26:09;11.10;;;3.28;;
40807;SDS011;26523;52.504;13.498;2023-03-01T09:28:36;10.73;;;3.78;;
40807;SDS011;26523;52.504;13.498;2023-03-01T09:31:02;6.85;;;3.33;;
40807;SDS011;26523;52.504;13.498;2023-03-01T09:33:29;10.43;;;3.08;;
40807;SDS011;26523;52.504;13.498;2023-03-01T09:38:35;8.55;;;3.35;;
40807;SDS011;26523;52.504;13.498;2023-03-01T09:41:00;5.97;;;2.85;;
40807;SDS011;26523;52.504;13.498;2023-03-01T09:46:09;11.07;;;2.90;;
40807;SDS011;26523;52.504;13.498;2023-03-01T09:48:41;5.30;;;2.22;;
40807;SDS011;26523;52.504;13.498;2023-03-01T09:51:16;5.47;;;2.03;;
40807;SDS011;26523;52.504;13.498;2023-03-01T09:54:02;5.50;;;2.35;;
40807;SDS011;26523;52.504;13.498;2023-03-01T09:56:30;5.82;;;2.28;;
40807;SDS011;26523;52.504;13.498;2023-03-01T10:10:08;6.40;;;2.03;;
40807;SDS011;26523;52.504;13.498;2023-03-01T10:12:41;4.20;;;2.40;;
40807;SDS011;26523;52.504;13.498;2023-03-01T10:15:15;8.00;;;2.10;;
40807;SDS011;26523;52.504;13.498;2023-03-01T10:17:57;3.45;;;1.75;;
40807;SDS011;26523;52.504;13.498;2023-03-01T10:21:28;7.70;;;2.30;;
40807;SDS011;26523;52.504;13.498;2023-03-01T10:23:27;5.30;;;2.13;;
40807;SDS011;26523;52.504;13.498;2023-03-01T10:31:15;5.32;;;1.70;;
40807;SDS011;26523;52.504;13.498;2023-03-01T10:33:52;2.63;;;1.23;;
40807;SDS011;26523;52.504;13.498;2023-03-01T10:36:20;6.57;;;2.10;;
40807;SDS011;26523;52.504;13.498;2023-03-01T10:38:47;5.90;;;2.20;;
40807;SDS011;26523;52.504;13.498;2023-03-01T10:41:22;5.53;;;1.95;;
40807;SDS011;26523;52.504;13.498;2023-03-01T10:43:58;4.72;;;1.88;;
40807;SDS011;26523;52.504;13.498;2023-03-01T10:49:05;4.25;;;1.60;;
40807;SDS011;26523;52.504;13.498;2023-03-01T10:51:40;6.03;;;1.85;;
40807;SDS011;26523;52.504;13.498;2023-03-01T10:54:15;3.58;;;1.52;;
40807;SDS011;26523;52.504;13.498;2023-03-01T10:57:03;4.30;;;2.17;;
40807;SDS011;26523;52.504;13.498;2023-03-01T10:59:31;4.30;;;1.88;;
40807;SDS011;26523;52.504;13.498;2023-03-01T11:02:45;4.65;;;2.20;;
40807;SDS011;26523;52.504;13.498;2023-03-01T11:04:57;2.00;;;1.27;;
40807;SDS011;26523;52.504;13.498;2023-03-01T11:07:54;3.40;;;1.63;;
40807;SDS011;26523;52.504;13.498;2023-03-01T11:10:23;4.45;;;1.80;;
40807;SDS011;26523;52.504;13.498;2023-03-01T11:12:50;6.70;;;2.22;;
40807;SDS011;26523;52.504;13.498;2023-03-01T11:15:21;4.80;;;2.05;;
40807;SDS011;26523;52.504;13.498;2023-03-01T11:17:52;6.57;;;1.88;;
40807;SDS011;26523;52.504;13.498;2023-03-01T11:22:56;4.55;;;1.80;;
40807;SDS011;26523;52.504;13.498;2023-03-01T11:25:27;4.18;;;1.60;;
40807;SDS011;26523;52.504;13.498;2023-03-01T11:27:58;2.47;;;1.17;;
40807;SDS011;26523;52.504;13.498;2023-03-01T11:33:01;2.55;;;0.93;;
40807;SDS011;26523;52.504;13.498;2023-03-01T11:41:15;2.78;;;1.60;;
40807;SDS011;26523;52.504;13.498;2023-03-01T11:51:45;6.40;;;1.63;;
40807;SDS011;26523;52.504;13.498;2023-03-01T12:00:18;5.63;;;1.65;;
40807;SDS011;26523;52.504;13.498;2023-03-01T12:03:01;6.22;;;1.48;;
40807;SDS011;26523;52.504;13.498;2023-03-01T12:08:22;2.03;;;0.85;;
40807;SDS011;26523;52.504;13.498;2023-03-01T12:11:07;1.75;;;0.98;;
40807;SDS011;26523;52.504;13.498;2023-03-01T12:13:56;8.15;;;1.35;;
40807;SDS011;26523;52.504;13.498;2023-03-01T12:16:34;4.97;;;1.25;;
40807;SDS011;26523;52.504;13.498;2023-03-01T12:21:59;5.35;;;1.73;;
40807;SDS011;26523;52.504;13.498;2023-03-01T12:24:47;4.63;;;1.38;;
40807;SDS011;26523;52.504;13.498;2023-03-01T12:38:53;3.33;;;1.10;;
40807;SDS011;26523;52.504;13.498;2023-03-01T12:41:27;3.63;;;1.40;;
40807;SDS011;26523;52.504;13.498;2023-03-01T12:50:23;4.25;;;1.42;;
40807;SDS011;26523;52.504;13.498;2023-03-01T12:52:57;2.78;;;1.23;;
40807;SDS011;26523;52.504;13.498;2023-03-01T12:55:36;1.55;;;1.00;;
40807;SDS011;26523;52.504;13.498;2023-03-01T13:03:21;3.22;;;1.25;;
40807;SDS011;26523;52.504;13.498;2023-03-01T13:06:14;3.47;;;1.40;;
40807;SDS011;26523;52.504;13.498;2023-03-01T13:08:49;8.70;;;2.00;;
40807;SDS011;26523;52.504;13.498;2023-03-01T13:11:25;4.68;;;1.52;;
40807;SDS011;26523;52.504;13.498;2023-03-01T13:13:51;3.80;;;1.40;;
40807;SDS011;26523;52.504;13.498;2023-03-01T13:16:41;3.60;;;1.58;;
40807;SDS011;26523;52.504;13.498;2023-03-01T13:19:12;2.45;;;0.90;;
40807;SDS011;26523;52.504;13.498;2023-03-01T13:21:42;2.35;;;1.05;;
40807;SDS011;26523;52.504;13.498;2023-03-01T13:24:29;3.28;;;1.35;;
40807;SDS011;26523;52.504;13.498;2023-03-01T13:34:44;4.25;;;1.33;;
40807;SDS011;26523;52.504;13.498;2023-03-01T13:37:22;3.28;;;1.35;;
40807;SDS011;26523;52.504;13.498;2023-03-01T13:39:51;2.60;;;1.60;;
40807;SDS011;26523;52.504;13.498;2023-03-01T13:42:33;2.45;;;1.00;;
40807;SDS011;26523;52.504;13.498;2023-03-01T13:47:54;4.85;;;1.48;;
40807;SDS011;26523;52.504;13.498;2023-03-01T13:50:24;4.07;;;1.35;;
40807;SDS011;26523;52.504;13.498;2023-03-01T13:52:53;3.28;;;1.40;;
40807;SDS011;26523;52.504;13.498;2023-03-01T13:55:43;4.13;;;1.58;;
40807;SDS011;26523;52.504;13.498;2023-03-01T13:58:43;7.90;;;1.45;;
40807;SDS011;26523;52.504;13.498;2023-03-01T14:01:18;8.05;;;2.22;;
40807;SDS011;26523;52.504;13.498;2023-03-01T14:04:01;4.35;;;1.55;;
40807;SDS011;26523;52.504;13.498;2023-03-01T14:06:29;2.97;;;1.33;;
40807;SDS011;26523;52.504;13.498;2023-03-01T14:09:05;3.45;;;1.17;;
40807;SDS011;26523;52.504;13.498;2023-03-01T14:12:26;4.63;;;1.77;;
40807;SDS011;26523;52.504;13.498;2023-03-01T14:14:52;3.03;;;1.55;;
40807;SDS011;26523;52.504;13.498;2023-03-01T14:17:23;2.90;;;1.52;;
40807;SDS011;26523;52.504;13.498;2023-03-01T14:19:57;3.45;;;1.17;;
40807;SDS011;26523;52.504;13.498;2023-03-01T14:22:29;7.47;;;1.67;;
40807;SDS011;26523;52.504;13.498;2023-03-01T14:27:32;4.32;;;1.40;;
40807;SDS011;26523;52.504;13.498;2023-03-01T14:30:09;3.38;;;1.45;;
40807;SDS011;26523;52.504;13.498;2023-03-01T14:32:39;7.85;;;2.40;;
40807;SDS011;26523;52.504;13.498;2023-03-01T14:35:18;5.78;;;1.20;;
40807;SDS011;26523;52.504;13.498;2023-03-01T14:37:47;4.20;;;1.48;;
40807;SDS011;26523;52.504;13.498;2023-03-01T14:40:48;2.80;;;0.80;;
40807;SDS011;26523;52.504;13.498;2023-03-01T14:43:11;6.43;;;1.70;;
40807;SDS011;26523;52.504;13.498;2023-03-01T14:45:40;3.80;;;1.85;;
40807;SDS011;26523;52.504;13.498;2023-03-01T14:48:13;10.43;;;1.88;;
40807;SDS011;26523;52.504;13.498;2023-03-01T14:50:41;3.90;;;1.50;;
40807;SDS011;26523;52.504;13.498;2023-03-01T14:53:07;2.67;;;1.20;;
40807;SDS011;26523;52.504;13.498;2023-03-01T14:55:55;2.80;;;1.38;;
40807;SDS011;26523;52.504;13.498;2023-03-01T14:58:25;3.40;;;1.20;;
40807;SDS011;26523;52.504;13.498;2023-03-01T15:00:59;4.22;;;1.50;;
40807;SDS011;26523;52.504;13.498;2023-03-01T15:03:36;4.05;;;1.60;;
40807;SDS011;26523;52.504;13.498;2023-03-01T15:06:06;4.30;;;1.40;;
40807;SDS011;26523;52.504;13.498;2023-03-01T15:08:33;5.55;;;1.38;;
40807;SDS011;26523;52.504;13.498;2023-03-01T15:13:38;4.18;;;1.30;;
40807;SDS011;26523;52.504;13.498;2023-03-01T15:16:05;3.30;;;1.20;;
40807;SDS011;26523;52.504;13.498;2023-03-01T15:18:32;3.15;;;1.38;;
40807;SDS011;26523;52.504;13.498;2023-03-01T15:21:58;6.32;;;1.48;;
40807;SDS011;26523;52.504;13.498;2023-03-01T15:23:57;4.15;;;1.30;;
40807;SDS011;26523;52.504;13.498;2023-03-01T15:26:51;5.25;;;0.90;;
40807;SDS011;26523;52.504;13.498;2023-03-01T15:29:20;2.40;;;1.08;;
40807;SDS011;26523;52.504;13.498;2023-03-01T15:32:21;2.03;;;1.08;;
40807;SDS011;26523;52.504;13.498;2023-03-01T15:35:00;2.08;;;0.70;;
40807;SDS011;26523;52.504;13.498;2023-03-01T15:37:49;2.20;;;1.02;;
40807;SDS011;26523;52.504;13.498;2023-03-01T15:40:22;3.10;;;0.98;;
40807;SDS011;26523;52.504;13.498;2023-03-01T15:42:56;1.55;;;0.77;;
40807;SDS011;26523;52.504;13.498;2023-03-01T15:45:24;4.93;;;0.90;;
40807;SDS011;26523;52.504;13.498;2023-03-01T15:47:56;3.72;;;1.85;;
40807;SDS011;26523;52.504;13.498;2023-03-01T15:50:27;3.13;;;1.37;;
40807;SDS011;26523;52.504;13.498;2023-03-01T15:52:55;3.42;;;1.05;;
40807;SDS011;26523;52.504;13.498;2023-03-01T15:55:26;1.80;;;0.90;;
40807;SDS011;26523;52.504;13.498;2023-03-01T15:57:58;2.55;;;0.73;;
40807;SDS011;26523;52.504;13.498;2023-03-01T16:00:27;2.03;;;0.88;;
40807;SDS011;26523;52.504;13.498;2023-03-01T16:02:54;2.38;;;1.10;;
40807;SDS011;26523;52.504;13.498;2023-03-01T16:05:30;3.22;;;1.40;;
40807;SDS011;26523;52.504;13.498;2023-03-01T16:07:57;5.82;;;1.25;;
40807;SDS011;26523;52.504;13.498;2023-03-01T16:10:23;2.75;;;1.33;;
40807;SDS011;26523;52.504;13.498;2023-03-01T16:12:50;8.25;;;1.45;;
40807;SDS011;26523;52.504;13.498;2023-03-01T16:17:48;3.45;;;1.25;;
40807;SDS011;26523;52.504;13.498;2023-03-01T16:20:14;2.63;;;1.10;;
40807;SDS011;26523;52.504;13.498;2023-03-01T16:22:41;4.35;;;1.50;;
40807;SDS011;26523;52.504;13.498;2023-03-01T16:25:09;2.20;;;1.08;;
40807;SDS011;26523;52.504;13.498;2023-03-01T16:27:36;4.80;;;1.40;;
40807;SDS011;26523;52.504;13.498;2023-03-01T16:30:02;2.95;;;1.35;;
40807;SDS011;26523;52.504;13.498;2023-03-01T16:32:29;2.67;;;1.30;;
40807;SDS011;26523;52.504;13.498;2023-03-01T16:34:54;2.45;;;1.23;;
40807;SDS011;26523;52.504;13.498;2023-03-01T16:37:20;1.92;;;0.95;;
40807;SDS011;26523;52.504;13.498;2023-03-01T16:39:46;6.15;;;1.45;;